Time;durP1;ratioP1;P1;durP2;ratioP2;P2;SDS_P1;SDS_P2;PMS_P1;PMS_P2;Temp;Humidity;BMP_temperature;BMP_pressure;BME280_temperature;BME280_humidity;BME280_pressure;Samples;Min_cycle;Max_cycle;Signal;HPM_P1;HPM_P2
2023/12/28 00:04:48;;;;;;;4.53;4.05;;;;;;;7.52;100.00;100453.53;10453973;28;20037;-80
2023/12/28 00:09:49;;;;;;;5.57;3.65;;;;;;;7.66;100.00;100473.25;10439101;28;20048;-81
2023/12/28 00:14:50;;;;;;;7.93;4.88;;;;;;;7.73;100.00;100479.44;10455148;28;20032;-81
2023/12/28 00:19:50;;;;;;;5.38;4.00;;;;;;;7.80;100.00;100480.09;10455413;28;20053;-81
2023/12/28 00:24:51;;;;;;;4.45;4.05;;;;;;;7.86;100.00;100472.81;10458074;28;20067;-81
2023/12/28 00:29:51;;;;;;;9.13;4.13;;;;;;;7.94;100.00;100479.78;10453171;28;20037;-83
2023/12/28 00:34:52;;;;;;;5.13;4.28;;;;;;;8.05;100.00;100492.59;10453892;28;20084;-85
2023/12/28 00:39:53;;;;;;;5.13;4.30;;;;;;;8.04;100.00;100494.53;10422422;28;20041;-82
2023/12/28 00:44:53;;;;;;;6.93;4.95;;;;;;;8.11;100.00;100499.03;10453905;28;20045;-82
2023/12/28 00:49:54;;;;;;;5.88;5.05;;;;;;;8.22;100.00;100506.34;10453054;28;20052;-82
2023/12/28 00:54:55;;;;;;;6.25;4.38;;;;;;;8.28;100.00;100521.78;10438320;28;20136;-81
2023/12/28 00:59:55;;;;;;;8.48;5.13;;;;;;;8.27;100.00;100499.03;10439541;28;20565;-79
2023/12/28 01:04:56;;;;;;;6.35;5.43;;;;;;;8.06;100.00;100494.25;10450318;28;20096;-81
2023/12/28 01:09:56;;;;;;;12.30;6.10;;;;;;;8.04;100.00;100512.84;10437080;28;20192;-82
2023/12/28 01:14:57;;;;;;;11.43;6.28;;;;;;;8.04;100.00;100501.91;10447050;28;20040;-80
2023/12/28 01:19:57;;;;;;;10.57;5.20;;;;;;;7.98;100.00;100502.88;10455966;28;20439;-80
2023/12/28 01:24:58;;;;;;;11.80;5.65;;;;;;;8.07;100.00;100509.66;10457018;28;20087;-80
2023/12/28 01:29:58;;;;;;;9.93;5.88;;;;;;;8.00;100.00;100512.53;10422989;28;20045;-80
2023/12/28 01:34:59;;;;;;;10.35;5.32;;;;;;;7.95;100.00;100508.88;10456657;28;20571;-82
2023/12/28 01:40:00;;;;;;;10.60;6.10;;;;;;;7.97;100.00;100529.47;10455583;28;20544;-82
2023/12/28 01:45:01;;;;;;;10.55;5.72;;;;;;;8.14;100.00;100539.63;10438768;28;20045;-81
2023/12/28 01:50:02;;;;;;;11.13;5.03;;;;;;;8.02;100.00;100515.00;10456941;28;20100;-81
2023/12/28 01:55:03;;;;;;;7.15;5.40;;;;;;;8.08;100.00;100546.94;10438312;28;20045;-81
2023/12/28 02:00:04;;;;;;;10.45;6.30;;;;;;;8.04;100.00;100543.03;10453816;28;20043;-80
2023/12/28 02:05:05;;;;;;;7.13;5.25;;;;;;;7.89;100.00;100532.59;10446289;28;20041;-80
2023/12/28 02:10:06;;;;;;;8.40;5.90;;;;;;;7.74;100.00;100540.53;10444523;28;20100;-81
2023/12/28 02:15:07;;;;;;;10.05;5.40;;;;;;;7.67;100.00;100547.00;10460661;28;20087;-81
2023/12/28 02:20:08;;;;;;;11.05;6.03;;;;;;;7.65;100.00;100535.44;10439004;28;20097;-82
2023/12/28 02:25:11;;;;;;;11.70;6.22;;;;;;;7.62;100.00;100537.84;10444664;28;20040;-82
2023/12/28 02:30:12;;;;;;;13.40;7.15;;;;;;;7.45;100.00;100529.53;10477546;28;20127;-81
2023/12/28 02:35:16;;;;;;;7.32;5.63;;;;;;;7.47;100.00;100525.47;10461200;28;20496;-80
2023/12/28 02:40:17;;;;;;;8.25;6.82;;;;;;;7.52;100.00;100526.66;10443941;28;20029;-81
2023/12/28 02:45:18;;;;;;;7.75;5.85;;;;;;;7.45;100.00;100524.88;10461042;28;20564;-82
2023/12/28 02:50:18;;;;;;;11.48;6.35;;;;;;;7.55;100.00;100531.66;10457992;28;20493;-81
2023/12/28 02:55:19;;;;;;;9.98;5.65;;;;;;;7.60;100.00;100531.75;10440909;28;20061;-81
2023/12/28 03:00:19;;;;;;;10.10;6.53;;;;;;;7.48;100.00;100524.41;10423380;28;20049;-75
2023/12/28 03:05:20;;;;;;;15.50;6.82;;;;;;;7.50;100.00;100523.34;10444868;28;20033;-76
2023/12/28 03:10:20;;;;;;;8.45;6.35;;;;;;;7.53;100.00;100511.91;10461008;28;20471;-83
2023/12/28 03:15:20;;;;;;;11.13;5.85;;;;;;;7.48;100.00;100508.00;10442265;28;20460;-83
2023/12/28 03:20:21;;;;;;;10.75;5.45;;;;;;;7.54;100.00;100503.41;10459492;28;20037;-81
2023/12/28 03:25:21;;;;;;;7.13;5.40;;;;;;;7.60;100.00;100496.97;10458712;28;20033;-83
2023/12/28 03:30:22;;;;;;;10.52;5.22;;;;;;;7.81;100.00;100513.81;10460788;28;20037;-84
2023/12/28 03:35:22;;;;;;;9.02;5.05;;;;;;;7.82;100.00;100488.91;10461205;28;20037;-82
2023/12/28 03:40:23;;;;;;;8.95;4.97;;;;;;;7.88;100.00;100492.59;10440918;28;20459;-76
2023/12/28 03:45:23;;;;;;;8.75;4.97;;;;;;;7.91;100.00;100486.59;10457288;28;20041;-81
2023/12/28 03:50:24;;;;;;;7.65;5.20;;;;;;;8.01;100.00;100488.69;10441161;28;20083;-80
2023/12/28 03:55:24;;;;;;;6.45;4.25;;;;;;;8.01;100.00;100486.78;10457636;28;20049;-83
2023/12/28 04:00:25;;;;;;;7.28;4.72;;;;;;;8.07;100.00;100479.47;10459910;28;20034;-83
2023/12/28 04:05:26;;;;;;;8.23;4.38;;;;;;;8.18;100.00;100486.78;10451715;28;20066;-82
2023/12/28 04:10:31;;;;;;;13.48;5.47;;;;;;;8.16;100.00;100469.75;10457827;28;20036;-83
2023/12/28 04:15:31;;;;;;;12.57;5.43;;;;;;;8.21;100.00;100464.38;10447490;28;20087;-80
2023/12/28 04:20:32;;;;;;;6.40;4.10;;;;;;;8.18;100.00;100462.13;10456532;28;20455;-80
2023/12/28 04:25:32;;;;;;;7.93;3.53;;;;;;;8.25;100.00;100453.75;10454600;28;20037;-82
2023/12/28 04:30:33;;;;;;;9.25;4.60;;;;;;;8.40;100.00;100428.47;10464288;28;20029;-78
2023/12/28 04:35:34;;;;;;;11.48;3.35;;;;;;;8.68;100.00;100464.06;10456668;28;20041;-83
2023/12/28 04:40:34;;;;;;;8.85;4.93;;;;;;;8.69;100.00;100462.13;10456288;28;20115;-78
2023/12/28 04:45:35;;;;;;;10.95;3.88;;;;;;;8.73;100.00;100462.47;10456929;28;20056;-81
2023/12/28 04:50:35;;;;;;;12.30;4.75;;;;;;;8.67;100.00;100458.81;10456308;28;20037;-79
2023/12/28 04:55:36;;;;;;;8.57;3.45;;;;;;;8.82;100.00;100464.50;10470827;28;20037;-82
2023/12/28 05:00:36;;;;;;;11.80;3.55;;;;;;;8.90;100.00;100476.97;10438523;28;20067;-82
2023/12/28 05:05:37;;;;;;;13.98;2.85;;;;;;;8.99;100.00;100461.75;10439954;28;20055;-81
2023/12/28 05:10:37;;;;;;;11.70;4.25;;;;;;;8.95;100.00;100435.88;10456021;28;20048;-79
2023/12/28 05:15:38;;;;;;;9.95;2.67;;;;;;;9.12;100.00;100465.19;10439154;28;20451;-82
2023/12/28 05:20:39;;;;;;;11.93;3.85;;;;;;;9.15;100.00;100467.44;10454164;28;20037;-77
2023/12/28 05:25:40;;;;;;;12.32;3.28;;;;;;;9.17;100.00;100459.75;10437286;28;20049;-75
2023/12/28 05:30:40;;;;;;;7.95;2.60;;;;;;;9.31;100.00;100463.78;10438121;28;20111;-79
2023/12/28 05:35:41;;;;;;;11.68;3.17;;;;;;;9.40;100.00;100470.47;10442694;28;20044;-80
2023/12/28 05:40:42;;;;;;;9.95;2.10;;;;;;;9.39;100.00;100449.59;10460889;28;20037;-83
2023/12/28 05:45:43;;;;;;;11.43;2.53;;;;;;;9.54;100.00;100448.13;10426791;28;20570;-79
2023/12/28 05:50:44;;;;;;;8.40;2.67;;;;;;;9.52;100.00;100475.03;10436507;28;20074;-81
2023/12/28 05:55:45;;;;;;;13.70;2.70;;;;;;;9.68;100.00;100483.19;10440453;28;20075;-77
2023/12/28 06:00:48;;;;;;;13.48;2.63;;;;;;;9.74;100.00;100481.31;10426009;28;20052;-76
2023/12/28 06:05:49;;;;;;;7.95;2.85;;;;;;;9.87;100.00;100486.41;10442547;28;20399;-79
2023/12/28 06:10:49;;;;;;;12.93;3.22;;;;;;;9.94;100.00;100469.69;10462160;28;20105;-78
2023/12/28 06:15:50;;;;;;;8.93;2.47;;;;;;;9.85;100.00;100461.09;10442761;28;20040;-77
2023/12/28 06:20:50;;;;;;;13.57;2.72;;;;;;;9.83;100.00;100485.25;10458517;28;20064;-80
2023/12/28 06:25:51;;;;;;;12.48;2.70;;;;;;;9.89;100.00;100461.41;10444847;28;20037;-80
2023/12/28 06:30:52;;;;;;;9.55;2.35;;;;;;;9.83;100.00;100459.69;10462264;28;20037;-76
2023/12/28 06:35:53;;;;;;;11.18;2.80;;;;;;;9.92;100.00;100449.88;10450870;28;20448;-81
2023/12/28 06:40:53;;;;;;;15.10;3.13;;;;;;;9.93;100.00;100453.47;10443706;28;20083;-81
2023/12/28 06:45:54;;;;;;;12.40;2.40;;;;;;;9.97;100.00;100449.09;10443627;28;20029;-74
2023/12/28 06:50:55;;;;;;;15.55;4.55;;;;;;;9.99;100.00;100456.00;10428141;28;20041;-83
2023/12/28 06:55:56;;;;;;;12.48;3.88;;;;;;;9.84;100.00;100423.69;10461605;28;20057;-78
2023/12/28 07:00:57;;;;;;;16.10;4.25;;;;;;;9.97;100.00;100474.69;10477030;28;20084;-79
2023/12/28 07:05:57;;;;;;;9.43;2.88;;;;;;;9.99;100.00;100469.75;10425112;28;20116;-80
2023/12/28 07:10:58;;;;;;;17.25;2.92;;;;;;;9.95;100.00;100473.28;10458816;28;20037;-83
2023/12/28 07:15:58;;;;;;;14.43;2.45;;;;;;;10.07;100.00;100479.47;10443298;28;20041;-79
2023/12/28 07:21:00;;;;;;;10.13;3.05;;;;;;;10.13;100.00;100461.91;10459993;28;20041;-81
2023/12/28 07:26:01;;;;;;;19.88;4.95;;;;;;;10.12;100.00;100471.25;10457749;28;20042;-80
2023/12/28 07:31:01;;;;;;;16.10;3.97;;;;;;;10.05;100.00;100454.13;10441439;28;20037;-78
2023/12/28 07:36:03;;;;;;;12.95;2.42;;;;;;;10.07;100.00;100484.97;10455368;28;20041;-78
2023/12/28 07:41:04;;;;;;;17.02;2.53;;;;;;;9.97;100.00;100462.84;10422535;28;20067;-77
2023/12/28 07:46:05;;;;;;;15.00;3.50;;;;;;;9.99;100.00;100501.94;10462616;28;20061;-79
2023/12/28 07:51:05;;;;;;;14.93;3.20;;;;;;;10.02;100.00;100502.22;10441065;28;20033;-77
2023/12/28 07:56:06;;;;;;;16.65;3.92;;;;;;;10.01;100.00;100519.00;10457587;28;20488;-80
2023/12/28 08:01:11;;;;;;;24.83;5.45;;;;;;;9.94;100.00;100501.88;10441063;28;20048;-79
2023/12/28 08:06:12;;;;;;;17.77;3.80;;;;;;;9.98;100.00;100514.81;10471416;28;20037;-78
2023/12/28 08:11:13;;;;;;;15.25;4.43;;;;;;;9.93;100.00;100534.03;10455113;28;20043;-81
2023/12/28 08:16:13;;;;;;;15.27;3.95;;;;;;;9.87;100.00;100519.41;10437235;28;20044;-80
2023/12/28 08:21:14;;;;;;;14.90;3.17;;;;;;;9.94;100.00;100526.63;10456241;28;20094;-79
2023/12/28 08:26:14;;;;;;;18.48;2.90;;;;;;;9.87;100.00;100533.16;10456738;28;20058;-73
2023/12/28 08:31:15;;;;;;;15.25;5.43;;;;;;;9.90;100.00;100546.38;10440306;28;20045;-79
2023/12/28 08:36:17;;;;;;;17.33;3.88;;;;;;;9.88;100.00;100558.72;10455476;28;20044;-77
2023/12/28 08:41:21;;;;;;;13.40;3.03;;;;;;;9.88;100.00;100565.06;10454249;28;20123;-79
2023/12/28 08:46:22;;;;;;;16.73;3.97;;;;;;;9.91;100.00;100527.97;10418349;28;20556;-80
2023/12/28 08:51:22;;;;;;;19.20;4.80;;;;;;;9.86;100.00;100525.16;10472233;28;20051;-80
2023/12/28 08:56:23;;;;;;;18.20;4.07;;;;;;;10.00;100.00;100550.31;10456232;28;20052;-76
2023/12/28 09:01:29;;;;;;;19.42;3.42;;;;;;;10.01;100.00;100549.25;10439367;28;20469;-77
2023/12/28 09:06:29;;;;;;;20.30;4.70;;;;;;;10.05;100.00;100536.66;10438045;28;20628;-77
2023/12/28 09:11:30;;;;;;;15.95;3.60;;;;;;;9.96;100.00;100565.69;10425294;28;20040;-78
2023/12/28 09:16:31;;;;;;;19.58;3.90;;;;;;;9.96;100.00;100551.94;10463151;28;20052;-77
2023/12/28 09:21:31;;;;;;;22.52;5.80;;;;;;;9.93;100.00;100560.72;10447212;28;20037;-78
2023/12/28 09:26:32;;;;;;;26.83;5.47;;;;;;;9.91;100.00;100566.47;10462715;28;20105;-77
2023/12/28 09:31:33;;;;;;;20.17;4.35;;;;;;;10.02;100.00;100583.91;10460535;28;20092;-77
2023/12/28 09:36:33;;;;;;;18.75;5.47;;;;;;;10.07;100.00;100579.31;10460841;28;20037;-77
2023/12/28 09:41:34;;;;;;;28.88;4.53;;;;;;;10.03;100.00;100558.06;10460898;28;20091;-76
2023/12/28 09:46:35;;;;;;;12.57;3.17;;;;;;;10.28;100.00;100591.34;10460846;28;20226;-77
2023/12/28 09:51:35;;;;;;;19.30;4.45;;;;;;;10.27;100.00;100594.34;10461533;28;20043;-78
2023/12/28 09:56:36;;;;;;;19.75;5.32;;;;;;;10.19;100.00;100609.41;10427593;28;20029;-77
2023/12/28 10:01:36;;;;;;;19.70;4.25;;;;;;;10.23;100.00;100612.47;10445665;28;20064;-84
2023/12/28 10:06:37;;;;;;;20.05;4.45;;;;;;;10.16;100.00;100603.59;10459195;28;20037;-88
2023/12/28 10:11:37;;;;;;;25.33;6.40;;;;;;;10.36;100.00;100612.09;10462280;28;20052;-86
2023/12/28 10:16:40;;;;;;;20.17;3.83;;;;;;;10.34;100.00;100622.53;10466997;28;20041;-86
2023/12/28 10:21:43;;;;;;;16.60;4.28;;;;;;;10.44;100.00;100643.84;10458618;28;20051;-77
2023/12/28 10:26:44;;;;;;;20.88;4.07;;;;;;;10.44;100.00;100635.59;10477040;28;20071;-77
2023/12/28 10:31:49;;;;;;;22.33;3.67;;;;;;;10.46;100.00;100636.97;10443281;28;20036;-78
2023/12/28 10:36:49;;;;;;;28.58;4.97;;;;;;;10.57;100.00;100621.38;10438834;28;20033;-78
2023/12/28 10:41:50;;;;;;;17.90;3.10;;;;;;;10.39;100.00;100608.00;10450538;28;20044;-77
2023/12/28 10:46:51;;;;;;;17.40;3.95;;;;;;;10.53;100.00;100625.75;10454929;28;20121;-78
2023/12/28 10:51:52;;;;;;;20.20;4.05;;;;;;;10.56;100.00;100610.63;10459641;28;20090;-77
2023/12/28 10:57:01;;;;;;;20.30;3.95;;;;;;;10.58;100.00;100617.53;10459911;28;20101;-77
2023/12/28 11:02:03;;;;;;;28.25;4.57;;;;;;;10.59;100.00;100613.69;10426268;28;20036;-79
2023/12/28 11:07:03;;;;;;;19.60;3.80;;;;;;;10.60;100.00;100625.53;10424821;28;20045;-80
2023/12/28 11:12:04;;;;;;;16.33;3.55;;;;;;;10.64;100.00;100627.50;10423120;28;20041;-80
2023/12/28 11:17:04;;;;;;;15.68;3.83;;;;;;;10.59;100.00;100635.72;10457969;28;20049;-84
2023/12/28 11:22:05;;;;;;;16.60;4.22;;;;;;;10.66;100.00;100630.00;10458646;28;20128;-80
2023/12/28 11:27:06;;;;;;;18.27;5.47;;;;;;;10.54;100.00;100632.91;10459116;28;20037;-83
2023/12/28 11:32:08;;;;;;;18.92;3.60;;;;;;;10.54;100.00;100627.41;10456531;28;20036;-86
2023/12/28 11:37:18;;;;;;;24.05;4.72;;;;;;;10.49;100.00;100619.94;10437923;28;20098;-77
2023/12/28 11:42:20;;;;;;;18.13;3.55;;;;;;;10.41;100.00;100625.06;10454957;28;20029;-83
2023/12/28 11:47:23;;;;;;;20.98;3.90;;;;;;;10.47;100.00;100616.59;10442158;28;20044;-84
2023/12/28 11:52:32;;;;;;;21.25;4.93;;;;;;;10.23;100.00;100621.56;10441450;28;20032;-87
2023/12/28 11:57:33;;;;;;;19.90;3.63;;;;;;;10.08;100.00;100635.13;10439977;28;20056;-80
2023/12/28 12:02:34;;;;;;;25.85;5.05;;;;;;;10.12;100.00;100625.28;10439803;28;20041;-83
2023/12/28 12:07:34;;;;;;;19.23;5.25;;;;;;;10.30;100.00;100611.22;10444327;28;20059;-88
2023/12/28 12:12:35;;;;;;;25.98;3.60;;;;;;;10.34;100.00;100622.53;10424223;28;20391;-80
2023/12/28 12:17:35;;;;;;;21.17;4.05;;;;;;;10.28;100.00;100618.88;10459282;28;20396;-78
2023/12/28 12:22:36;;;;;;;17.40;4.43;;;;;;;10.22;100.00;100599.81;10438623;28;20041;-82
2023/12/28 12:27:38;;;;;;;14.52;4.00;;;;;;;10.36;100.00;100608.53;10454043;28;20037;-80
2023/12/28 12:32:42;;;;;;;21.20;3.92;;;;;;;10.27;100.00;100613.59;10453412;28;20049;-80
2023/12/28 12:37:44;;;;;;;20.20;4.30;;;;;;;10.19;100.00;100614.91;10431781;28;20072;-79
2023/12/28 12:42:51;;;;;;;25.77;4.43;;;;;;;10.27;100.00;100622.72;10454245;28;20036;-78
2023/12/28 12:47:51;;;;;;;15.43;4.18;;;;;;;10.29;100.00;100604.06;10447902;28;20033;-77
2023/12/28 12:52:52;;;;;;;21.85;3.83;;;;;;;10.36;100.00;100609.34;10456485;28;20043;-77
2023/12/28 12:57:55;;;;;;;19.02;3.85;;;;;;;10.32;100.00;100588.13;10455813;28;20037;-78
2023/12/28 13:02:59;;;;;;;25.23;4.60;;;;;;;10.41;100.00;100600.31;10436835;28;20033;-78
2023/12/28 13:07:59;;;;;;;28.17;5.32;;;;;;;9.96;100.00;100517.00;10450249;28;20071;-78
2023/12/28 13:13:01;;;;;;;21.67;3.90;;;;;;;10.37;100.00;100588.16;10437662;28;20120;-80
2023/12/28 13:18:01;;;;;;;18.20;3.72;;;;;;;10.42;100.00;100602.81;10455250;28;20064;-79
2023/12/28 13:23:02;;;;;;;26.27;5.53;;;;;;;10.38;100.00;100574.16;10418886;28;20072;-79
2023/12/28 13:28:03;;;;;;;21.77;3.85;;;;;;;10.40;100.00;100604.16;10453083;28;20097;-78
2023/12/28 13:33:04;;;;;;;20.17;4.40;;;;;;;10.35;100.00;100584.84;10419638;28;20122;-78
2023/12/28 13:38:05;;;;;;;19.15;4.20;;;;;;;10.30;100.00;100586.44;10434622;28;21100;-78
2023/12/28 13:43:06;;;;;;;19.17;3.72;;;;;;;10.23;100.00;100584.94;10451531;28;20049;-80
2023/12/28 13:48:08;;;;;;;21.00;4.03;;;;;;;10.21;100.00;100596.25;10438271;28;20493;-82
2023/12/28 13:53:09;;;;;;;27.25;6.05;;;;;;;10.30;100.00;100599.38;10438526;28;20037;-76
2023/12/28 13:58:09;;;;;;;16.10;3.72;;;;;;;10.29;100.00;100603.19;10459949;28;20055;-77
2023/12/28 14:03:09;;;;;;;25.38;3.63;;;;;;;10.34;100.00;100599.69;10425512;28;20048;-77
2023/12/28 14:08:10;;;;;;;22.70;4.57;;;;;;;10.16;100.00;100590.66;10461706;28;20397;-78
2023/12/28 14:13:11;;;;;;;22.38;4.05;;;;;;;10.22;100.00;100597.88;10428078;28;20455;-80
2023/12/28 14:18:11;;;;;;;14.65;4.55;;;;;;;10.25;100.00;100602.88;10476875;28;20041;-77
2023/12/28 14:23:12;;;;;;;24.55;5.55;;;;;;;10.20;100.00;100589.06;10459890;28;20049;-79
2023/12/28 14:28:13;;;;;;;19.50;3.33;;;;;;;10.22;100.00;100592.38;10448353;28;20041;-77
2023/12/28 14:33:14;;;;;;;16.15;3.45;;;;;;;10.15;100.00;100580.75;10458765;28;20116;-77
2023/12/28 14:38:14;;;;;;;17.75;4.22;;;;;;;10.11;100.00;100568.63;10459011;28;20041;-75
2023/12/28 14:43:15;;;;;;;15.38;4.07;;;;;;;10.13;100.00;100577.44;10423604;28;20152;-76
2023/12/28 14:48:15;;;;;;;15.43;4.22;;;;;;;10.10;100.00;100562.25;10463123;28;20409;-78
2023/12/28 14:53:16;;;;;;;23.48;4.72;;;;;;;10.12;100.00;100575.75;10457652;28;20040;-76
2023/12/28 14:58:19;;;;;;;18.38;4.57;;;;;;;9.88;100.00;100586.22;10457562;28;20033;-77
2023/12/28 15:03:19;;;;;;;22.55;4.80;;;;;;;9.73;100.00;100577.78;10439371;28;20455;-78
2023/12/28 15:08:21;;;;;;;21.35;4.28;;;;;;;9.65;100.00;100568.91;10422129;28;20047;-78
2023/12/28 15:13:22;;;;;;;17.50;4.30;;;;;;;9.68;100.00;100575.81;10457149;28;20041;-77
2023/12/28 15:18:22;;;;;;;16.70;4.93;;;;;;;9.70;100.00;100584.63;10458707;28;20036;-78
2023/12/28 15:23:23;;;;;;;26.50;6.15;;;;;;;9.64;100.00;100580.97;10422924;28;20044;-80
2023/12/28 15:28:24;;;;;;;20.88;4.35;;;;;;;9.65;100.00;100557.06;10470645;28;20048;-81
2023/12/28 15:33:24;;;;;;;23.67;5.18;;;;;;;9.60;100.00;100557.84;10420984;28;20032;-79
2023/12/28 15:38:25;;;;;;;13.98;3.90;;;;;;;9.75;100.00;100551.69;10423108;28;20044;-79
2023/12/28 15:43:25;;;;;;;14.65;4.03;;;;;;;9.81;100.00;100558.91;10458273;28;20044;-78
2023/12/28 15:48:26;;;;;;;16.55;3.70;;;;;;;9.87;100.00;100563.38;10441051;28;20106;-78
2023/12/28 15:53:27;;;;;;;20.73;4.25;;;;;;;9.86;100.00;100534.25;10455959;28;20048;-80
2023/12/28 15:58:27;;;;;;;16.65;3.03;;;;;;;9.87;100.00;100535.88;10438346;28;20037;-79
2023/12/28 16:03:28;;;;;;;25.35;3.00;;;;;;;9.95;100.00;100547.53;10422525;28;20495;-77
2023/12/28 16:08:29;;;;;;;16.17;3.40;;;;;;;9.86;100.00;100527.91;10434686;28;20040;-77
2023/12/28 16:13:29;;;;;;;17.13;3.50;;;;;;;9.84;100.00;100539.19;10426684;28;20386;-80
2023/12/28 16:18:30;;;;;;;11.52;3.05;;;;;;;9.82;100.00;100549.59;10433679;28;20071;-78
2023/12/28 16:23:31;;;;;;;12.10;3.25;;;;;;;9.57;100.00;100492.41;10432958;28;20067;-78
2023/12/28 16:28:32;;;;;;;9.57;3.17;;;;;;;9.82;100.00;100540.53;10452991;28;20095;-77
2023/12/28 16:33:32;;;;;;;12.00;2.70;;;;;;;9.83;100.00;100518.25;10437519;28;20037;-77
2023/12/28 16:38:33;;;;;;;16.75;2.88;;;;;;;9.81;100.00;100520.44;10454915;28;20087;-78
2023/12/28 16:43:36;;;;;;;15.88;3.42;;;;;;;9.87;100.00;100524.91;10454847;28;20044;-80
2023/12/28 16:48:36;;;;;;;15.90;3.25;;;;;;;9.93;100.00;100524.97;10438916;28;20037;-79
2023/12/28 16:53:37;;;;;;;11.57;2.72;;;;;;;9.81;100.00;100514.94;10418692;28;20048;-78
2023/12/28 16:58:37;;;;;;;13.82;3.33;;;;;;;9.80;100.00;100516.03;10420174;28;20064;-77
2023/12/28 17:03:38;;;;;;;13.23;2.97;;;;;;;9.69;100.00;100512.34;10421977;28;20064;-78
2023/12/28 17:08:38;;;;;;;17.83;3.65;;;;;;;9.75;100.00;100499.47;10420309;28;20037;-79
2023/12/28 17:13:39;;;;;;;12.80;3.60;;;;;;;9.72;100.00;100512.91;10427516;28;20037;-77
2023/12/28 17:18:40;;;;;;;14.68;3.42;;;;;;;9.66;100.00;100503.78;10436992;28;20044;-80
2023/12/28 17:23:43;;;;;;;19.50;3.72;;;;;;;9.62;100.00;100517.19;10434610;28;20037;-78
2023/12/28 17:28:58;;;;;;;15.98;4.07;;;;;;;9.56;100.00;100520.13;10454231;28;20052;-78
2023/12/28 17:33:59;;;;;;;13.13;4.07;;;;;;;9.47;100.00;100504.09;10475760;28;20066;-79
2023/12/28 17:39:06;;;;;;;30.05;7.28;;;;;;;9.37;100.00;100475.69;10442691;28;20075;-81
2023/12/28 17:44:16;;;;;;;15.95;3.60;;;;;;;9.42;100.00;100484.78;10459891;28;20436;-81
2023/12/28 17:49:27;;;;;;;16.63;4.05;;;;;;;9.49;100.00;100484.63;10440346;28;20037;-78
2023/12/28 17:54:27;;;;;;;24.77;4.53;;;;;;;9.55;100.00;100469.00;10461274;28;20516;-77
2023/12/28 17:59:28;;;;;;;13.55;2.97;;;;;;;9.58;100.00;100466.56;10440665;28;20033;-78
2023/12/28 18:04:31;;;;;;;15.70;3.92;;;;;;;9.56;100.00;100454.19;10454873;28;20048;-80
2023/12/28 18:09:36;;;;;;;13.15;2.97;;;;;;;9.66;100.00;100449.63;10428445;28;20048;-78
2023/12/28 18:14:37;;;;;;;17.02;3.65;;;;;;;9.64;100.00;100448.22;10443463;28;20140;-79
2023/12/28 18:19:38;;;;;;;19.55;4.03;;;;;;;9.71;100.00;100448.84;10427086;28;20037;-79
2023/12/28 18:24:39;;;;;;;16.50;3.67;;;;;;;9.73;100.00;100457.66;10443194;28;20040;-79
2023/12/28 18:29:40;;;;;;;9.68;2.58;;;;;;;9.68;100.00;100454.88;10442678;28;20399;-79
2023/12/28 18:34:46;;;;;;;19.98;3.72;;;;;;;9.66;100.00;100438.63;10427636;28;20061;-79
2023/12/28 18:39:47;;;;;;;;;;;;;;;9.71;100.00;100454.34;10427777;28;20045;-80
2023/12/28 18:44:47;;;;;;;20.13;5.05;;;;;;;9.70;100.00;100436.19;10432569;28;19927;-78
2023/12/28 18:49:49;;;;;;;17.02;3.70;;;;;;;9.76;100.00;100420.59;10459232;28;20033;-78
2023/12/28 18:54:50;;;;;;;12.65;2.67;;;;;;;9.71;100.00;100413.09;10422475;28;20037;-78
2023/12/28 18:59:51;;;;;;;16.17;3.17;;;;;;;9.75;100.00;100410.66;10442798;28;20045;-80
2023/12/28 19:04:51;;;;;;;15.00;3.50;;;;;;;9.85;100.00;100422.59;10459552;28;20037;-81
2023/12/28 19:09:52;;;;;;;19.50;3.25;;;;;;;9.86;100.00;100391.28;10459455;28;20051;-79
2023/12/28 19:14:52;;;;;;;15.07;2.83;;;;;;;9.87;100.00;100400.34;10457600;28;20029;-82
2023/12/28 19:19:53;;;;;;;14.73;3.38;;;;;;;9.93;100.00;100401.22;10440659;28;20037;-78
2023/12/28 19:24:53;;;;;;;17.02;3.97;;;;;;;9.90;100.00;100414.41;10458265;28;20029;-78
2023/12/28 19:29:56;;;;;;;14.75;2.45;;;;;;;9.90;100.00;100408.06;10441794;28;20048;-78
2023/12/28 19:34:57;;;;;;;13.48;3.55;;;;;;;9.85;100.00;100375.03;10441042;28;20420;-77
2023/12/28 19:39:57;;;;;;;12.88;2.72;;;;;;;9.88;100.00;100388.25;10441589;28;20044;-78
2023/12/28 19:44:58;;;;;;;19.05;8.15;;;;;;;9.82;100.00;100389.31;10457319;28;20110;-79
2023/12/28 19:49:58;;;;;;;29.10;4.80;;;;;;;9.82;100.00;100395.63;10439726;28;20092;-80
2023/12/28 19:54:59;;;;;;;12.20;4.07;;;;;;;9.78;100.00;100378.00;10439893;28;20064;-78
2023/12/28 20:00:00;;;;;;;18.02;4.53;;;;;;;9.58;100.00;100333.84;10456683;28;20045;-78
2023/12/28 20:05:00;;;;;;;14.38;3.28;;;;;;;9.83;100.00;100347.78;10453459;28;20045;-77
2023/12/28 20:10:01;;;;;;;11.50;3.08;;;;;;;9.71;100.00;100338.88;10456688;28;20516;-79
2023/12/28 20:15:02;;;;;;;15.93;3.05;;;;;;;9.66;100.00;100325.13;10455829;28;20044;-78
2023/12/28 20:20:03;;;;;;;12.43;4.15;;;;;;;9.75;100.00;100352.94;10455615;28;20040;-79
2023/12/28 20:25:04;;;;;;;23.17;7.43;;;;;;;9.67;100.00;100365.25;10456106;28;20037;-73
2023/12/28 20:30:05;;;;;;;8.00;4.07;;;;;;;9.49;100.00;100349.97;10449079;28;20049;-79
2023/12/28 20:35:06;;;;;;;28.08;10.43;;;;;;;9.42;100.00;100352.09;10406526;28;20045;-80
2023/12/28 20:40:07;;;;;;;16.48;3.88;;;;;;;9.43;100.00;100356.50;10448463;28;20040;-79
2023/12/28 20:45:09;;;;;;;10.77;3.03;;;;;;;9.49;100.00;100339.81;10447948;28;20045;-76
2023/12/28 20:50:11;;;;;;;9.45;3.72;;;;;;;9.55;100.00;100343.44;10454641;28;20073;-79
2023/12/28 20:55:11;;;;;;;12.57;3.50;;;;;;;9.37;100.00;100343.81;10453734;28;20029;-79
2023/12/28 21:00:13;;;;;;;14.90;3.90;;;;;;;9.17;100.00;100333.44;10438598;28;20067;-79
2023/12/28 21:05:14;;;;;;;15.02;3.60;;;;;;;9.15;100.00;100344.66;10458527;28;20358;-81
2023/12/28 21:10:14;;;;;;;14.65;3.38;;;;;;;9.09;100.00;100349.28;10429132;28;20033;-81
2023/12/28 21:15:15;;;;;;;13.70;3.30;;;;;;;9.19;100.00;100342.25;10444513;28;20049;-81
2023/12/28 21:20:15;;;;;;;11.35;3.22;;;;;;;9.23;100.00;100343.38;10446536;28;20041;-82
2023/12/28 21:25:16;;;;;;;17.75;3.80;;;;;;;9.13;100.00;100344.09;10426447;28;20053;-79
2023/12/28 21:30:16;;;;;;;10.43;4.32;;;;;;;8.91;100.00;100326.81;10440181;28;20037;-85
2023/12/28 21:35:17;;;;;;;9.73;3.42;;;;;;;8.87;100.00;100324.59;10439554;28;20075;-82
2023/12/28 21:40:17;;;;;;;13.13;4.43;;;;;;;8.86;100.00;100316.59;10462589;28;20048;-82
2023/12/28 21:45:18;;;;;;;18.83;4.72;;;;;;;8.70;100.00;100293.63;10448748;28;20658;-81
2023/12/28 21:50:18;;;;;;;12.80;3.42;;;;;;;8.88;100.00;100312.50;10444279;28;20040;-79
2023/12/28 21:55:22;;;;;;;15.50;3.53;;;;;;;8.88;100.00;100265.03;10461312;28;20437;-83
2023/12/28 22:00:22;;;;;;;21.70;6.20;;;;;;;8.82;100.00;100274.28;10444798;28;20029;-79
2023/12/28 22:05:23;;;;;;;13.48;6.38;;;;;;;8.68;100.00;100287.56;10461403;28;20049;-81
2023/12/28 22:10:23;;;;;;;14.20;9.18;;;;;;;8.52;100.00;100300.28;10457787;28;20037;-83
2023/12/28 22:15:24;;;;;;;27.75;14.23;;;;;;;8.55;100.00;100309.91;10461696;28;20110;-76
2023/12/28 22:20:24;;;;;;;18.92;13.60;;;;;;;8.43;100.00;100296.31;10443804;28;20036;-84
2023/12/28 22:25:25;;;;;;;18.02;14.52;;;;;;;8.39;100.00;100295.97;10461312;28;20037;-79
2023/12/28 22:30:25;;;;;;;25.33;21.58;;;;;;;8.29;100.00;100304.88;10461883;28;20043;-79
2023/12/28 22:35:26;;;;;;;25.10;21.23;;;;;;;8.32;100.00;100299.97;10461982;28;20048;-77
2023/12/28 22:40:26;;;;;;;25.65;23.17;;;;;;;8.29;100.00;100291.19;10462848;28;20070;-78
2023/12/28 22:45:27;;;;;;;27.30;21.25;;;;;;;8.27;100.00;100282.38;10477822;28;20275;-78
2023/12/28 22:50:27;;;;;;;21.90;19.70;;;;;;;8.20;100.00;100284.44;10462013;28;20037;-77